sensor_id;sensor_type;location;lat;lon;timestamp;P1;durP1;ratioP1;P2;durP2;ratioP2
6902;SDS011;20232;49.408;8.702;2022-08-19T04:00:48;24.23;;;21.83;;
6902;SDS011;20232;49.408;8.702;2022-08-19T04:03:14;24.57;;;22.13;;
6902;SDS011;20232;49.408;8.702;2022-08-19T04:05:40;23.30;;;21.10;;
6902;SDS011;20232;49.408;8.702;2022-08-19T04:08:06;22.70;;;20.30;;
6902;SDS011;20232;49.408;8.702;2022-08-19T04:10:35;24.53;;;21.93;;
6902;SDS011;20232;49.408;8.702;2022-08-19T04:13:01;23.63;;;21.37;;
6902;SDS011;20232;49.408;8.702;2022-08-19T04:15:29;22.00;;;19.77;;
6902;SDS011;20232;49.408;8.702;2022-08-19T04:17:58;23.90;;;21.50;;
6902;SDS011;20232;49.408;8.702;2022-08-19T04:20:23;24.70;;;22.23;;
6902;SDS011;20232;49.408;8.702;2022-08-19T04:22:49;26.33;;;23.73;;
6902;SDS011;20232;49.408;8.702;2022-08-19T04:25:14;27.80;;;24.90;;
6902;SDS011;20232;49.408;8.702;2022-08-19T04:27:40;26.57;;;23.77;;
6902;SDS011;20232;49.408;8.702;2022-08-19T04:30:12;27.37;;;24.70;;
6902;SDS011;20232;49.408;8.702;2022-08-19T04:32:39;27.27;;;24.50;;
6902;SDS011;20232;49.408;8.702;2022-08-19T04:35:04;26.63;;;23.83;;
6902;SDS011;20232;49.408;8.702;2022-08-19T04:37:30;27.93;;;24.97;;
6902;SDS011;20232;49.408;8.702;2022-08-19T04:39:58;27.93;;;25.07;;
6902;SDS011;20232;49.408;8.702;2022-08-19T04:42:42;27.40;;;24.63;;
6902;SDS011;20232;49.408;8.702;2022-08-19T04:45:10;25.70;;;22.80;;
6902;SDS011;20232;49.408;8.702;2022-08-19T04:47:38;24.87;;;22.47;;
6902;SDS011;20232;49.408;8.702;2022-08-19T04:50:05;25.23;;;22.90;;
6902;SDS011;20232;49.408;8.702;2022-08-19T04:52:32;27.73;;;24.47;;
6902;SDS011;20232;49.408;8.702;2022-08-19T04:54:58;23.60;;;21.40;;
6902;SDS011;20232;49.408;8.702;2022-08-19T04:57:24;24.80;;;22.13;;
6902;SDS011;20232;49.408;8.702;2022-08-19T04:59:54;26.03;;;23.43;;
6902;SDS011;20232;49.408;8.702;2022-08-19T05:02:21;23.70;;;21.07;;
6902;SDS011;20232;49.408;8.702;2022-08-19T05:04:59;24.20;;;21.80;;
6902;SDS011;20232;49.408;8.702;2022-08-19T05:07:25;22.50;;;20.20;;
6902;SDS011;20232;49.408;8.702;2022-08-19T05:09:52;24.57;;;21.83;;
6902;SDS011;20232;49.408;8.702;2022-08-19T05:12:17;25.53;;;22.80;;
6902;SDS011;20232;49.408;8.702;2022-08-19T05:14:44;24.80;;;22.40;;
6902;SDS011;20232;49.408;8.702;2022-08-19T05:17:12;22.03;;;19.83;;
6902;SDS011;20232;49.408;8.702;2022-08-19T05:19:38;21.70;;;19.43;;
6902;SDS011;20232;49.408;8.702;2022-08-19T05:22:22;21.03;;;19.03;;
6902;SDS011;20232;49.408;8.702;2022-08-19T05:24:57;22.60;;;20.20;;
6902;SDS011;20232;49.408;8.702;2022-08-19T05:27:23;20.90;;;18.77;;
6902;SDS011;20232;49.408;8.702;2022-08-19T05:29:49;23.40;;;21.10;;
6902;SDS011;20232;49.408;8.702;2022-08-19T05:32:14;24.73;;;20.70;;
6902;SDS011;20232;49.408;8.702;2022-08-19T05:34:40;20.00;;;17.90;;
6902;SDS011;20232;49.408;8.702;2022-08-19T05:37:05;19.97;;;17.97;;
6902;SDS011;20232;49.408;8.702;2022-08-19T05:39:32;22.30;;;20.00;;
6902;SDS011;20232;49.408;8.702;2022-08-19T05:42:01;24.77;;;22.13;;
6902;SDS011;20232;49.408;8.702;2022-08-19T05:44:33;22.57;;;20.30;;
6902;SDS011;20232;49.408;8.702;2022-08-19T05:47:00;25.23;;;22.63;;
6902;SDS011;20232;49.408;8.702;2022-08-19T05:49:27;23.80;;;21.43;;
6902;SDS011;20232;49.408;8.702;2022-08-19T05:51:54;24.70;;;22.17;;
6902;SDS011;20232;49.408;8.702;2022-08-19T05:54:21;23.60;;;21.33;;
6902;SDS011;20232;49.408;8.702;2022-08-19T05:56:48;26.13;;;23.53;;
6902;SDS011;20232;49.408;8.702;2022-08-19T05:59:16;24.80;;;22.40;;
6902;SDS011;20232;49.408;8.702;2022-08-19T06:01:44;25.87;;;23.27;;
6902;SDS011;20232;49.408;8.702;2022-08-19T06:04:11;26.23;;;23.50;;
6902;SDS011;20232;49.408;8.702;2022-08-19T06:06:38;26.03;;;23.53;;
6902;SDS011;20232;49.408;8.702;2022-08-19T06:09:05;25.23;;;22.70;;
6902;SDS011;20232;49.408;8.702;2022-08-19T06:11:34;26.77;;;23.67;;
6902;SDS011;20232;49.408;8.702;2022-08-19T06:14:04;25.63;;;22.93;;
6902;SDS011;20232;49.408;8.702;2022-08-19T06:16:33;27.30;;;24.40;;
6902;SDS011;20232;49.408;8.702;2022-08-19T06:19:01;25.77;;;23.17;;
6902;SDS011;20232;49.408;8.702;2022-08-19T06:21:29;25.80;;;23.30;;
6902;SDS011;20232;49.408;8.702;2022-08-19T06:23:55;26.40;;;23.73;;
6902;SDS011;20232;49.408;8.702;2022-08-19T06:26:22;26.50;;;23.70;;
6902;SDS011;20232;49.408;8.702;2022-08-19T06:28:49;25.97;;;22.90;;
6902;SDS011;20232;49.408;8.702;2022-08-19T06:31:16;27.10;;;24.30;;
6902;SDS011;20232;49.408;8.702;2022-08-19T06:33:45;24.70;;;22.20;;
6902;SDS011;20232;49.408;8.702;2022-08-19T06:36:22;26.40;;;23.70;;
6902;SDS011;20232;49.408;8.702;2022-08-19T06:38:52;28.33;;;24.40;;
6902;SDS011;20232;49.408;8.702;2022-08-19T06:41:18;24.73;;;22.23;;
6902;SDS011;20232;49.408;8.702;2022-08-19T06:43:44;26.07;;;22.83;;
6902;SDS011;20232;49.408;8.702;2022-08-19T06:46:11;25.97;;;23.33;;
6902;SDS011;20232;49.408;8.702;2022-08-19T06:48:38;25.53;;;23.03;;
6902;SDS011;20232;49.408;8.702;2022-08-19T06:51:04;25.80;;;23.00;;
6902;SDS011;20232;49.408;8.702;2022-08-19T06:53:31;25.87;;;23.23;;
6902;SDS011;20232;49.408;8.702;2022-08-19T06:55:57;24.23;;;21.80;;
6902;SDS011;20232;49.408;8.702;2022-08-19T06:58:26;23.77;;;21.37;;
6902;SDS011;20232;49.408;8.702;2022-08-19T07:00:59;25.00;;;22.43;;
6902;SDS011;20232;49.408;8.702;2022-08-19T07:03:29;22.60;;;20.30;;
6902;SDS011;20232;49.408;8.702;2022-08-19T07:05:56;22.73;;;20.17;;
6902;SDS011;20232;49.408;8.702;2022-08-19T07:08:21;24.03;;;21.53;;
6902;SDS011;20232;49.408;8.702;2022-08-19T07:10:47;20.90;;;18.87;;
6902;SDS011;20232;49.408;8.702;2022-08-19T07:13:14;22.20;;;19.63;;
6902;SDS011;20232;49.408;8.702;2022-08-19T07:15:39;21.40;;;19.20;;
6902;SDS011;20232;49.408;8.702;2022-08-19T07:18:05;20.70;;;18.67;;
6902;SDS011;20232;49.408;8.702;2022-08-19T07:20:31;18.27;;;16.40;;
6902;SDS011;20232;49.408;8.702;2022-08-19T07:22:57;23.37;;;19.63;;
6902;SDS011;20232;49.408;8.702;2022-08-19T07:25:23;19.57;;;17.57;;
6902;SDS011;20232;49.408;8.702;2022-08-19T07:27:49;20.57;;;18.47;;
6902;SDS011;20232;49.408;8.702;2022-08-19T07:30:15;20.30;;;18.27;;
6902;SDS011;20232;49.408;8.702;2022-08-19T07:32:41;21.83;;;19.70;;
6902;SDS011;20232;49.408;8.702;2022-08-19T07:35:07;22.93;;;20.60;;
6902;SDS011;20232;49.408;8.702;2022-08-19T07:37:34;20.13;;;18.07;;
6902;SDS011;20232;49.408;8.702;2022-08-19T07:40:02;19.93;;;16.97;;
6902;SDS011;20232;49.408;8.702;2022-08-19T07:42:29;19.37;;;17.50;;
6902;SDS011;20232;49.408;8.702;2022-08-19T07:44:55;15.70;;;14.20;;
6902;SDS011;20232;49.408;8.702;2022-08-19T07:47:21;17.10;;;15.37;;
6902;SDS011;20232;49.408;8.702;2022-08-19T07:49:47;15.50;;;14.00;;
6902;SDS011;20232;49.408;8.702;2022-08-19T07:52:13;16.43;;;14.80;;
6902;SDS011;20232;49.408;8.702;2022-08-19T07:54:40;16.60;;;15.00;;
6902;SDS011;20232;49.408;8.702;2022-08-19T07:57:06;17.57;;;15.87;;
6902;SDS011;20232;49.408;8.702;2022-08-19T07:59:32;15.60;;;14.10;;
6902;SDS011;20232;49.408;8.702;2022-08-19T08:01:58;20.13;;;17.13;;
6902;SDS011;20232;49.408;8.702;2022-08-19T08:04:25;14.00;;;12.70;;
6902;SDS011;20232;49.408;8.702;2022-08-19T08:07:10;15.97;;;14.30;;
6902;SDS011;20232;49.408;8.702;2022-08-19T08:09:54;17.37;;;15.50;;
6902;SDS011;20232;49.408;8.702;2022-08-19T08:12:25;16.77;;;15.10;;
6902;SDS011;20232;49.408;8.702;2022-08-19T08:14:54;17.07;;;14.63;;
6902;SDS011;20232;49.408;8.702;2022-08-19T08:17:25;16.97;;;15.23;;
6902;SDS011;20232;49.408;8.702;2022-08-19T08:19:52;15.83;;;14.13;;
6902;SDS011;20232;49.408;8.702;2022-08-19T08:22:19;14.53;;;13.03;;
6902;SDS011;20232;49.408;8.702;2022-08-19T08:25:16;15.63;;;13.63;;
6902;SDS011;20232;49.408;8.702;2022-08-19T08:27:44;11.93;;;10.73;;
6902;SDS011;20232;49.408;8.702;2022-08-19T08:30:15;12.93;;;11.53;;
6902;SDS011;20232;49.408;8.702;2022-08-19T08:32:43;11.80;;;10.70;;
6902;SDS011;20232;49.408;8.702;2022-08-19T08:35:12;9.23;;;8.33;;
6902;SDS011;20232;49.408;8.702;2022-08-19T08:37:39;11.43;;;10.33;;
6902;SDS011;20232;49.408;8.702;2022-08-19T08:40:07;11.97;;;10.73;;
6902;SDS011;20232;49.408;8.702;2022-08-19T08:42:45;12.97;;;11.20;;
6902;SDS011;20232;49.408;8.702;2022-08-19T08:45:25;10.97;;;9.67;;
6902;SDS011;20232;49.408;8.702;2022-08-19T08:47:52;12.30;;;10.17;;
6902;SDS011;20232;49.408;8.702;2022-08-19T08:50:38;10.53;;;9.60;;
6902;SDS011;20232;49.408;8.702;2022-08-19T08:53:08;9.33;;;8.43;;
6902;SDS011;20232;49.408;8.702;2022-08-19T08:55:35;12.63;;;9.80;;
6902;SDS011;20232;49.408;8.702;2022-08-19T08:58:03;9.23;;;7.93;;
6902;SDS011;20232;49.408;8.702;2022-08-19T09:00:33;7.67;;;6.77;;
6902;SDS011;20232;49.408;8.702;2022-08-19T09:03:02;9.33;;;7.40;;
6902;SDS011;20232;49.408;8.702;2022-08-19T09:05:40;7.90;;;7.27;;
6902;SDS011;20232;49.408;8.702;2022-08-19T09:08:32;8.57;;;7.20;;
6902;SDS011;20232;49.408;8.702;2022-08-19T09:11:10;7.50;;;6.73;;
6902;SDS011;20232;49.408;8.702;2022-08-19T09:16:36;7.30;;;6.60;;
6902;SDS011;20232;49.408;8.702;2022-08-19T09:19:04;7.10;;;6.30;;
6902;SDS011;20232;49.408;8.702;2022-08-19T09:21:30;6.97;;;5.90;;
6902;SDS011;20232;49.408;8.702;2022-08-19T09:23:57;10.50;;;6.67;;
6902;SDS011;20232;49.408;8.702;2022-08-19T09:26:23;6.90;;;5.83;;
6902;SDS011;20232;49.408;8.702;2022-08-19T09:28:50;7.10;;;6.33;;
6902;SDS011;20232;49.408;8.702;2022-08-19T09:31:21;7.37;;;6.30;;
6902;SDS011;20232;49.408;8.702;2022-08-19T09:33:49;6.10;;;5.60;;
6902;SDS011;20232;49.408;8.702;2022-08-19T09:36:16;6.97;;;5.53;;
6902;SDS011;20232;49.408;8.702;2022-08-19T09:38:44;5.73;;;5.17;;
6902;SDS011;20232;49.408;8.702;2022-08-19T09:41:14;5.67;;;5.17;;
6902;SDS011;20232;49.408;8.702;2022-08-19T09:43:43;6.27;;;4.80;;
6902;SDS011;20232;49.408;8.702;2022-08-19T09:46:10;5.13;;;4.63;;
6902;SDS011;20232;49.408;8.702;2022-08-19T09:48:37;5.07;;;4.40;;
6902;SDS011;20232;49.408;8.702;2022-08-19T09:51:13;5.27;;;4.77;;
6902;SDS011;20232;49.408;8.702;2022-08-19T09:53:41;5.87;;;5.33;;
6902;SDS011;20232;49.408;8.702;2022-08-19T09:56:08;6.37;;;4.93;;
6902;SDS011;20232;49.408;8.702;2022-08-19T09:58:34;5.80;;;5.17;;
6902;SDS011;20232;49.408;8.702;2022-08-19T10:01:01;5.37;;;4.87;;
6902;SDS011;20232;49.408;8.702;2022-08-19T10:03:28;5.87;;;4.30;;
6902;SDS011;20232;49.408;8.702;2022-08-19T10:05:55;4.87;;;3.93;;
6902;SDS011;20232;49.408;8.702;2022-08-19T10:08:23;5.53;;;4.07;;
6902;SDS011;20232;49.408;8.702;2022-08-19T10:10:51;4.63;;;3.70;;
6902;SDS011;20232;49.408;8.702;2022-08-19T10:13:22;4.23;;;3.60;;
6902;SDS011;20232;49.408;8.702;2022-08-19T10:15:51;4.67;;;3.30;;
6902;SDS011;20232;49.408;8.702;2022-08-19T10:18:20;4.77;;;4.10;;
6902;SDS011;20232;49.408;8.702;2022-08-19T10:20:47;4.30;;;3.90;;
6902;SDS011;20232;49.408;8.702;2022-08-19T10:23:15;4.10;;;3.70;;
6902;SDS011;20232;49.408;8.702;2022-08-19T10:25:41;4.23;;;3.83;;
6902;SDS011;20232;49.408;8.702;2022-08-19T10:28:08;4.60;;;4.20;;
6902;SDS011;20232;49.408;8.702;2022-08-19T10:30:36;4.17;;;3.77;;
6902;SDS011;20232;49.408;8.702;2022-08-19T10:33:03;4.27;;;3.50;;
6902;SDS011;20232;49.408;8.702;2022-08-19T10:35:30;4.60;;;3.20;;
6902;SDS011;20232;49.408;8.702;2022-08-19T10:37:56;3.83;;;3.50;;
6902;SDS011;20232;49.408;8.702;2022-08-19T10:40:26;3.97;;;3.10;;
6902;SDS011;20232;49.408;8.702;2022-08-19T10:42:53;3.33;;;3.13;;
6902;SDS011;20232;49.408;8.702;2022-08-19T10:45:20;2.97;;;2.77;;
6902;SDS011;20232;49.408;8.702;2022-08-19T10:47:50;4.23;;;3.83;;
6902;SDS011;20232;49.408;8.702;2022-08-19T10:50:16;4.03;;;3.10;;
6902;SDS011;20232;49.408;8.702;2022-08-19T10:53:03;3.93;;;3.17;;
6902;SDS011;20232;49.408;8.702;2022-08-19T10:55:30;4.70;;;3.30;;
6902;SDS011;20232;49.408;8.702;2022-08-19T10:58:16;3.90;;;3.00;;
6902;SDS011;20232;49.408;8.702;2022-08-19T11:00:50;6.80;;;3.30;;
6902;SDS011;20232;49.408;8.702;2022-08-19T11:03:18;3.87;;;3.37;;
6902;SDS011;20232;49.408;8.702;2022-08-19T11:05:43;3.03;;;2.83;;
6902;SDS011;20232;49.408;8.702;2022-08-19T11:08:09;3.10;;;2.80;;
6902;SDS011;20232;49.408;8.702;2022-08-19T11:10:36;3.63;;;3.20;;
6902;SDS011;20232;49.408;8.702;2022-08-19T11:13:06;3.40;;;3.10;;
6902;SDS011;20232;49.408;8.702;2022-08-19T11:15:31;4.27;;;3.20;;
6902;SDS011;20232;49.408;8.702;2022-08-19T11:17:58;3.40;;;3.10;;
6902;SDS011;20232;49.408;8.702;2022-08-19T11:20:24;3.40;;;3.10;;
6902;SDS011;20232;49.408;8.702;2022-08-19T11:22:51;5.47;;;3.70;;
6902;SDS011;20232;49.408;8.702;2022-08-19T11:25:17;3.40;;;2.93;;
6902;SDS011;20232;49.408;8.702;2022-08-19T11:27:43;4.03;;;3.60;;
6902;SDS011;20232;49.408;8.702;2022-08-19T11:30:10;3.70;;;3.40;;
6902;SDS011;20232;49.408;8.702;2022-08-19T11:32:37;3.97;;;3.60;;
6902;SDS011;20232;49.408;8.702;2022-08-19T11:35:03;4.10;;;3.70;;
6902;SDS011;20232;49.408;8.702;2022-08-19T11:37:29;4.37;;;3.83;;
6902;SDS011;20232;49.408;8.702;2022-08-19T11:39:54;4.97;;;4.00;;
6902;SDS011;20232;49.408;8.702;2022-08-19T11:42:20;4.37;;;3.60;;
6902;SDS011;20232;49.408;8.702;2022-08-19T11:45:04;5.07;;;4.13;;
6902;SDS011;20232;49.408;8.702;2022-08-19T11:47:30;5.23;;;4.00;;
6902;SDS011;20232;49.408;8.702;2022-08-19T11:49:56;5.67;;;5.00;;
6902;SDS011;20232;49.408;8.702;2022-08-19T11:52:22;4.97;;;3.93;;
6902;SDS011;20232;49.408;8.702;2022-08-19T11:54:47;5.00;;;3.93;;
6902;SDS011;20232;49.408;8.702;2022-08-19T11:57:13;5.53;;;3.53;;
6902;SDS011;20232;49.408;8.702;2022-08-19T11:59:41;4.20;;;3.80;;
6902;SDS011;20232;49.408;8.702;2022-08-19T12:02:12;4.87;;;3.80;;
6902;SDS011;20232;49.408;8.702;2022-08-19T12:04:40;3.93;;;3.60;;
6902;SDS011;20232;49.408;8.702;2022-08-19T12:07:05;4.60;;;4.27;;
6902;SDS011;20232;49.408;8.702;2022-08-19T12:09:31;4.47;;;4.07;;
6902;SDS011;20232;49.408;8.702;2022-08-19T12:11:59;5.07;;;4.57;;
6902;SDS011;20232;49.408;8.702;2022-08-19T12:14:26;4.40;;;4.10;;
6902;SDS011;20232;49.408;8.702;2022-08-19T12:16:55;4.67;;;4.30;;
6902;SDS011;20232;49.408;8.702;2022-08-19T12:19:20;4.43;;;4.03;;
6902;SDS011;20232;49.408;8.702;2022-08-19T12:21:46;4.47;;;3.83;;
6902;SDS011;20232;49.408;8.702;2022-08-19T12:24:11;4.47;;;4.07;;
6902;SDS011;20232;49.408;8.702;2022-08-19T12:26:37;4.90;;;4.20;;
6902;SDS011;20232;49.408;8.702;2022-08-19T12:29:03;4.23;;;3.93;;
6902;SDS011;20232;49.408;8.702;2022-08-19T12:31:29;6.13;;;5.00;;
6902;SDS011;20232;49.408;8.702;2022-08-19T12:33:55;6.03;;;4.73;;
6902;SDS011;20232;49.408;8.702;2022-08-19T12:36:21;5.90;;;4.77;;
6902;SDS011;20232;49.408;8.702;2022-08-19T12:38:48;5.20;;;4.70;;
6902;SDS011;20232;49.408;8.702;2022-08-19T12:41:14;5.73;;;4.93;;
6902;SDS011;20232;49.408;8.702;2022-08-19T12:43:43;5.20;;;4.70;;
6902;SDS011;20232;49.408;8.702;2022-08-19T12:46:09;5.83;;;5.13;;
6902;SDS011;20232;49.408;8.702;2022-08-19T12:48:36;5.33;;;4.40;;
6902;SDS011;20232;49.408;8.702;2022-08-19T12:51:08;5.13;;;4.73;;
6902;SDS011;20232;49.408;8.702;2022-08-19T12:53:36;5.30;;;4.80;;
6902;SDS011;20232;49.408;8.702;2022-08-19T12:56:02;5.73;;;5.17;;
6902;SDS011;20232;49.408;8.702;2022-08-19T12:58:30;5.07;;;4.67;;
6902;SDS011;20232;49.408;8.702;2022-08-19T13:00:56;5.93;;;4.40;;
6902;SDS011;20232;49.408;8.702;2022-08-19T13:03:21;4.63;;;4.23;;
6902;SDS011;20232;49.408;8.702;2022-08-19T13:05:52;4.20;;;3.83;;
6902;SDS011;20232;49.408;8.702;2022-08-19T13:08:17;4.90;;;4.50;;
6902;SDS011;20232;49.408;8.702;2022-08-19T13:10:43;4.43;;;4.10;;
6902;SDS011;20232;49.408;8.702;2022-08-19T13:13:09;4.70;;;4.30;;
6902;SDS011;20232;49.408;8.702;2022-08-19T13:15:35;4.87;;;4.47;;
6902;SDS011;20232;49.408;8.702;2022-08-19T13:18:02;4.47;;;4.10;;
6902;SDS011;20232;49.408;8.702;2022-08-19T13:20:28;7.10;;;4.10;;
6902;SDS011;20232;49.408;8.702;2022-08-19T13:22:54;4.57;;;4.27;;
6902;SDS011;20232;49.408;8.702;2022-08-19T13:25:20;4.17;;;3.87;;
6902;SDS011;20232;49.408;8.702;2022-08-19T13:27:46;4.50;;;4.20;;
6902;SDS011;20232;49.408;8.702;2022-08-19T13:30:14;5.10;;;4.70;;
6902;SDS011;20232;49.408;8.702;2022-08-19T13:32:59;4.77;;;4.37;;
6902;SDS011;20232;49.408;8.702;2022-08-19T13:35:39;4.27;;;3.97;;
6902;SDS011;20232;49.408;8.702;2022-08-19T13:38:05;4.17;;;3.97;;
6902;SDS011;20232;49.408;8.702;2022-08-19T13:40:31;5.67;;;4.33;;
6902;SDS011;20232;49.408;8.702;2022-08-19T13:43:00;4.30;;;4.00;;
6902;SDS011;20232;49.408;8.702;2022-08-19T13:45:28;4.90;;;4.50;;
6902;SDS011;20232;49.408;8.702;2022-08-19T13:47:55;4.50;;;4.10;;
6902;SDS011;20232;49.408;8.702;2022-08-19T13:50:24;5.40;;;4.40;;
6902;SDS011;20232;49.408;8.702;2022-08-19T13:52:52;4.33;;;4.03;;
6902;SDS011;20232;49.408;8.702;2022-08-19T13:55:19;4.40;;;4.00;;
6902;SDS011;20232;49.408;8.702;2022-08-19T13:57:44;5.10;;;3.90;;
6902;SDS011;20232;49.408;8.702;2022-08-19T14:00:12;5.50;;;3.77;;
6902;SDS011;20232;49.408;8.702;2022-08-19T14:02:40;4.90;;;4.23;;
6902;SDS011;20232;49.408;8.702;2022-08-19T14:05:07;4.03;;;3.80;;
6902;SDS011;20232;49.408;8.702;2022-08-19T14:07:35;3.67;;;3.40;;
6902;SDS011;20232;49.408;8.702;2022-08-19T14:10:01;3.97;;;3.57;;
6902;SDS011;20232;49.408;8.702;2022-08-19T14:12:29;4.00;;;3.60;;
6902;SDS011;20232;49.408;8.702;2022-08-19T14:14:56;3.57;;;3.27;;
6902;SDS011;20232;49.408;8.702;2022-08-19T14:17:22;3.50;;;3.17;;
6902;SDS011;20232;49.408;8.702;2022-08-19T14:19:49;3.97;;;3.53;;
6902;SDS011;20232;49.408;8.702;2022-08-19T14:22:21;3.83;;;3.53;;
6902;SDS011;20232;49.408;8.702;2022-08-19T14:24:46;3.77;;;3.37;;
6902;SDS011;20232;49.408;8.702;2022-08-19T14:27:12;5.57;;;3.90;;
6902;SDS011;20232;49.408;8.702;2022-08-19T14:29:39;4.03;;;3.70;;
6902;SDS011;20232;49.408;8.702;2022-08-19T14:32:04;4.83;;;3.80;;
6902;SDS011;20232;49.408;8.702;2022-08-19T14:34:30;4.80;;;3.60;;
6902;SDS011;20232;49.408;8.702;2022-08-19T14:36:56;3.93;;;3.63;;
6902;SDS011;20232;49.408;8.702;2022-08-19T14:39:22;4.97;;;3.50;;
6902;SDS011;20232;49.408;8.702;2022-08-19T14:41:48;4.73;;;3.90;;
6902;SDS011;20232;49.408;8.702;2022-08-19T14:44:14;4.00;;;3.67;;
6902;SDS011;20232;49.408;8.702;2022-08-19T14:46:39;4.13;;;3.83;;
6902;SDS011;20232;49.408;8.702;2022-08-19T14:49:05;6.17;;;3.53;;
6902;SDS011;20232;49.408;8.702;2022-08-19T14:51:31;4.30;;;4.00;;
6902;SDS011;20232;49.408;8.702;2022-08-19T14:53:57;4.20;;;3.87;;
6902;SDS011;20232;49.408;8.702;2022-08-19T14:56:24;4.33;;;3.80;;
6902;SDS011;20232;49.408;8.702;2022-08-19T14:58:51;4.30;;;3.90;;
6902;SDS011;20232;49.408;8.702;2022-08-19T15:01:17;3.93;;;3.63;;
6902;SDS011;20232;49.408;8.702;2022-08-19T15:03:45;4.33;;;3.93;;
6902;SDS011;20232;49.408;8.702;2022-08-19T15:06:11;4.40;;;4.00;;
6902;SDS011;20232;49.408;8.702;2022-08-19T15:08:38;5.07;;;3.70;;
6902;SDS011;20232;49.408;8.702;2022-08-19T15:11:10;4.23;;;3.93;;
6902;SDS011;20232;49.408;8.702;2022-08-19T15:13:37;3.93;;;3.60;;
6902;SDS011;20232;49.408;8.702;2022-08-19T15:16:03;4.33;;;3.93;;
6902;SDS011;20232;49.408;8.702;2022-08-19T15:18:28;4.43;;;4.03;;
6902;SDS011;20232;49.408;8.702;2022-08-19T15:20:54;4.60;;;4.20;;
6902;SDS011;20232;49.408;8.702;2022-08-19T15:23:20;4.60;;;4.20;;
6902;SDS011;20232;49.408;8.702;2022-08-19T15:25:46;6.20;;;4.47;;
6902;SDS011;20232;49.408;8.702;2022-08-19T15:28:13;4.23;;;3.83;;
6902;SDS011;20232;49.408;8.702;2022-08-19T15:30:40;4.33;;;3.70;;
6902;SDS011;20232;49.408;8.702;2022-08-19T15:33:06;4.57;;;3.57;;
6902;SDS011;20232;49.408;8.702;2022-08-19T15:35:32;3.53;;;3.33;;
6902;SDS011;20232;49.408;8.702;2022-08-19T15:37:58;4.00;;;3.73;;
6902;SDS011;20232;49.408;8.702;2022-08-19T15:40:24;4.27;;;3.87;;
6902;SDS011;20232;49.408;8.702;2022-08-19T15:42:51;4.60;;;4.00;;
6902;SDS011;20232;49.408;8.702;2022-08-19T15:45:17;4.47;;;4.17;;
6902;SDS011;20232;49.408;8.702;2022-08-19T15:47:45;4.13;;;3.73;;
6902;SDS011;20232;49.408;8.702;2022-08-19T15:50:12;4.67;;;3.70;;
6902;SDS011;20232;49.408;8.702;2022-08-19T15:52:47;4.47;;;4.07;;
6902;SDS011;20232;49.408;8.702;2022-08-19T15:55:14;5.17;;;4.00;;
6902;SDS011;20232;49.408;8.702;2022-08-19T15:57:39;4.80;;;4.40;;
6902;SDS011;20232;49.408;8.702;2022-08-19T16:00:24;5.70;;;4.20;;
6902;SDS011;20232;49.408;8.702;2022-08-19T16:03:10;4.40;;;3.90;;
6902;SDS011;20232;49.408;8.702;2022-08-19T16:05:57;5.13;;;4.27;;
6902;SDS011;20232;49.408;8.702;2022-08-19T16:08:42;4.80;;;4.00;;
6902;SDS011;20232;49.408;8.702;2022-08-19T16:11:10;3.90;;;3.60;;
6902;SDS011;20232;49.408;8.702;2022-08-19T16:13:37;4.13;;;3.83;;
6902;SDS011;20232;49.408;8.702;2022-08-19T16:16:03;3.97;;;3.67;;
6902;SDS011;20232;49.408;8.702;2022-08-19T16:18:30;4.23;;;3.83;;
6902;SDS011;20232;49.408;8.702;2022-08-19T16:20:56;3.77;;;3.47;;
6902;SDS011;20232;49.408;8.702;2022-08-19T16:23:21;3.70;;;3.40;;
6902;SDS011;20232;49.408;8.702;2022-08-19T16:25:47;4.33;;;3.80;;
6902;SDS011;20232;49.408;8.702;2022-08-19T16:28:13;4.33;;;3.90;;
6902;SDS011;20232;49.408;8.702;2022-08-19T16:30:39;3.87;;;3.60;;
6902;SDS011;20232;49.408;8.702;2022-08-19T16:33:06;4.17;;;3.70;;
6902;SDS011;20232;49.408;8.702;2022-08-19T16:35:32;3.97;;;3.67;;
6902;SDS011;20232;49.408;8.702;2022-08-19T16:37:58;3.70;;;3.40;;
6902;SDS011;20232;49.408;8.702;2022-08-19T16:40:23;4.37;;;3.97;;
6902;SDS011;20232;49.408;8.702;2022-08-19T16:42:49;4.53;;;3.97;;
6902;SDS011;20232;49.408;8.702;2022-08-19T16:45:16;3.90;;;3.10;;
6902;SDS011;20232;49.408;8.702;2022-08-19T16:47:43;4.80;;;3.60;;
6902;SDS011;20232;49.408;8.702;2022-08-19T16:50:09;3.57;;;3.27;;
6902;SDS011;20232;49.408;8.702;2022-08-19T16:52:34;3.53;;;3.33;;
6902;SDS011;20232;49.408;8.702;2022-08-19T16:55:01;3.77;;;3.47;;
6902;SDS011;20232;49.408;8.702;2022-08-19T16:57:28;3.40;;;3.10;;
6902;SDS011;20232;49.408;8.702;2022-08-19T16:59:56;3.80;;;3.40;;
6902;SDS011;20232;49.408;8.702;2022-08-19T17:02:21;3.20;;;2.90;;
6902;SDS011;20232;49.408;8.702;2022-08-19T17:04:47;3.50;;;3.20;;
6902;SDS011;20232;49.408;8.702;2022-08-19T17:07:14;3.77;;;3.23;;
6902;SDS011;20232;49.408;8.702;2022-08-19T17:09:39;3.37;;;3.10;;
6902;SDS011;20232;49.408;8.702;2022-08-19T17:12:05;3.30;;;3.00;;
6902;SDS011;20232;49.408;8.702;2022-08-19T17:14:30;5.03;;;3.20;;
6902;SDS011;20232;49.408;8.702;2022-08-19T17:16:56;3.97;;;3.63;;
6902;SDS011;20232;49.408;8.702;2022-08-19T17:19:22;3.60;;;3.30;;
6902;SDS011;20232;49.408;8.702;2022-08-19T17:21:47;3.87;;;3.47;;
6902;SDS011;20232;49.408;8.702;2022-08-19T17:24:13;3.50;;;3.30;;
6902;SDS011;20232;49.408;8.702;2022-08-19T17:26:38;4.17;;;3.40;;
6902;SDS011;20232;49.408;8.702;2022-08-19T17:29:05;4.50;;;3.40;;
6902;SDS011;20232;49.408;8.702;2022-08-19T17:31:31;3.90;;;3.60;;
6902;SDS011;20232;49.408;8.702;2022-08-19T17:33:57;3.70;;;3.40;;
6902;SDS011;20232;49.408;8.702;2022-08-19T17:36:24;4.00;;;3.60;;
6902;SDS011;20232;49.408;8.702;2022-08-19T17:38:53;4.27;;;3.47;;
6902;SDS011;20232;49.408;8.702;2022-08-19T17:41:20;4.10;;;3.70;;
6902;SDS011;20232;49.408;8.702;2022-08-19T17:43:49;5.13;;;4.10;;
6902;SDS011;20232;49.408;8.702;2022-08-19T17:46:15;4.43;;;3.73;;
6902;SDS011;20232;49.408;8.702;2022-08-19T17:48:42;4.13;;;3.70;;
6902;SDS011;20232;49.408;8.702;2022-08-19T17:51:18;4.00;;;3.70;;
6902;SDS011;20232;49.408;8.702;2022-08-19T17:53:45;5.87;;;3.80;;
6902;SDS011;20232;49.408;8.702;2022-08-19T17:56:11;4.40;;;4.00;;
6902;SDS011;20232;49.408;8.702;2022-08-19T17:58:37;4.33;;;3.93;;
6902;SDS011;20232;49.408;8.702;2022-08-19T18:01:06;4.43;;;4.13;;
6902;SDS011;20232;49.408;8.702;2022-08-19T18:03:36;5.97;;;4.10;;
6902;SDS011;20232;49.408;8.702;2022-08-19T18:06:02;4.83;;;4.07;;
6902;SDS011;20232;49.408;8.702;2022-08-19T18:08:28;3.63;;;3.43;;
6902;SDS011;20232;49.408;8.702;2022-08-19T18:10:53;4.73;;;4.33;;
6902;SDS011;20232;49.408;8.702;2022-08-19T18:13:19;4.80;;;4.27;;
6902;SDS011;20232;49.408;8.702;2022-08-19T18:15:45;5.50;;;5.00;;
6902;SDS011;20232;49.408;8.702;2022-08-19T18:18:11;5.63;;;5.13;;
6902;SDS011;20232;49.408;8.702;2022-08-19T18:20:37;5.43;;;4.60;;
6902;SDS011;20232;49.408;8.702;2022-08-19T18:23:03;4.20;;;3.90;;
6902;SDS011;20232;49.408;8.702;2022-08-19T18:25:29;5.60;;;4.73;;
6902;SDS011;20232;49.408;8.702;2022-08-19T18:27:56;5.50;;;4.50;;
6902;SDS011;20232;49.408;8.702;2022-08-19T18:30:24;4.67;;;4.23;;
6902;SDS011;20232;49.408;8.702;2022-08-19T18:32:56;5.33;;;4.73;;
6902;SDS011;20232;49.408;8.702;2022-08-19T18:35:25;5.30;;;4.20;;
6902;SDS011;20232;49.408;8.702;2022-08-19T18:37:54;4.27;;;3.97;;
6902;SDS011;20232;49.408;8.702;2022-08-19T18:40:22;5.30;;;4.67;;
6902;SDS011;20232;49.408;8.702;2022-08-19T18:43:08;4.40;;;4.00;;
6902;SDS011;20232;49.408;8.702;2022-08-19T18:45:37;4.70;;;4.30;;
6902;SDS011;20232;49.408;8.702;2022-08-19T18:48:22;6.77;;;4.37;;
6902;SDS011;20232;49.408;8.702;2022-08-19T18:51:07;4.87;;;4.43;;
6902;SDS011;20232;49.408;8.702;2022-08-19T18:53:34;5.20;;;4.70;;
6902;SDS011;20232;49.408;8.702;2022-08-19T18:56:02;4.77;;;4.10;;
6902;SDS011;20232;49.408;8.702;2022-08-19T18:58:29;4.63;;;4.30;;
6902;SDS011;20232;49.408;8.702;2022-08-19T19:00:58;4.80;;;4.40;;